Colerne, United Kingdom
Current Conditions -  °F | °C
As of 9:20 PM on Saturday 25 Oct 2014 (Local Time) from EGGD Reporting Station
Broken Clouds Broken Clouds  
Wind Chill: 52°   Ceiling: 3300
Heat Index: 52°   Visibility: 6mi
Dew Point: 48°   Wind: 12mph
Humidity: 88%   Direction: 220°SW
Pressure: 30.12"   Gusts: NA
Location:  51.44°N, 2.26°W
Report Text: EGGD 252020Z 22010KT 9999 BKN033 11/09 Q1020
Loading
Personal Weather Stations






























Interactive Weather Map
Tropical Storm Tracking
New forecast layout! Learn more

10-Day Weather Forecast

Advertisements
Track Severe Weather on mobile